createdAt,value
2023-05-21T00:00:49.198Z,14.29
2023-05-21T00:03:15.874Z,14.23
2023-05-21T00:05:44.185Z,14.24
2023-05-21T00:08:11.032Z,14.24
2023-05-21T00:10:37.591Z,14.27
2023-05-21T00:13:05.170Z,14.31
2023-05-21T00:15:31.722Z,14.28
2023-05-21T00:17:58.259Z,14.26
2023-05-21T00:20:24.952Z,14.23
2023-05-21T00:22:52.840Z,14.23
2023-05-21T00:25:19.389Z,14.21
2023-05-21T00:27:46.033Z,14.18
2023-05-21T00:30:12.696Z,14.14
2023-05-21T00:32:39.351Z,14.13
2023-05-21T00:35:07.207Z,14.14
2023-05-21T00:37:33.785Z,14.09
2023-05-21T00:40:01.971Z,14.05
2023-05-21T00:42:28.557Z,14.01
2023-05-21T00:44:55.070Z,13.97
2023-05-21T00:47:21.684Z,13.97
2023-05-21T00:49:48.713Z,13.96
2023-05-21T00:52:15.411Z,13.99
2023-05-21T00:54:41.997Z,13.97
2023-05-21T00:57:10.174Z,13.87
2023-05-21T00:59:36.941Z,13.88
2023-05-21T01:02:03.681Z,13.83
2023-05-21T01:04:30.410Z,13.80
2023-05-21T01:06:56.922Z,13.78
2023-05-21T01:09:23.528Z,13.74
2023-05-21T01:11:51.188Z,13.73
2023-05-21T01:14:20.524Z,13.68
2023-05-21T01:16:50.058Z,13.64
2023-05-21T01:19:18.731Z,13.63
2023-05-21T01:21:46.608Z,13.61
2023-05-21T01:24:14.766Z,13.57
2023-05-21T01:26:41.386Z,13.60
2023-05-21T01:29:08.247Z,13.55
2023-05-21T01:31:40.609Z,13.54
2023-05-21T01:34:11.074Z,13.50
2023-05-21T01:36:41.014Z,13.45
2023-05-21T01:39:14.520Z,13.45
2023-05-21T01:41:43.636Z,13.46
2023-05-21T01:44:11.879Z,13.43
2023-05-21T01:46:38.774Z,13.40
2023-05-21T01:49:06.089Z,13.39
2023-05-21T01:51:33.284Z,13.35
2023-05-21T01:53:59.836Z,13.34
2023-05-21T01:56:26.346Z,13.31
2023-05-21T01:58:55.798Z,13.32
2023-05-21T02:01:22.396Z,13.30
2023-05-21T02:03:49.033Z,13.33
2023-05-21T02:06:15.603Z,13.34
2023-05-21T02:08:42.132Z,13.25
2023-05-21T02:11:08.671Z,13.20
2023-05-21T02:13:35.195Z,13.16
2023-05-21T02:16:03.082Z,13.15
2023-05-21T02:18:29.601Z,13.15
2023-05-21T02:20:56.156Z,13.17
2023-05-21T02:23:22.688Z,13.13
2023-05-21T02:25:49.301Z,13.18
2023-05-21T02:28:15.832Z,13.15
2023-05-21T02:30:42.329Z,13.10
2023-05-21T02:33:10.304Z,13.08
2023-05-21T02:35:37.088Z,13.15
2023-05-21T02:38:03.828Z,13.23
2023-05-21T02:40:30.396Z,13.18
2023-05-21T02:42:56.940Z,13.15
2023-05-21T02:45:23.575Z,13.14
2023-05-21T02:47:50.157Z,13.10
2023-05-21T02:50:18.057Z,13.11
2023-05-21T02:52:44.587Z,13.13
2023-05-21T02:55:11.200Z,13.07
2023-05-21T02:57:37.736Z,13.08
2023-05-21T03:00:05.346Z,13.16
2023-05-21T03:02:32.013Z,13.16
2023-05-21T03:04:58.590Z,13.14
2023-05-21T03:07:26.623Z,13.11
2023-05-21T03:09:53.182Z,13.09
2023-05-21T03:12:19.829Z,13.03
2023-05-21T03:14:46.437Z,13.12
2023-05-21T03:17:13.055Z,13.09
2023-05-21T03:19:40.721Z,13.10
2023-05-21T03:22:07.619Z,13.09
2023-05-21T03:24:35.544Z,13.10
2023-05-21T03:27:02.090Z,13.12
2023-05-21T03:29:28.893Z,13.15
2023-05-21T03:31:55.924Z,13.12
2023-05-21T03:34:22.581Z,13.17
2023-05-21T03:36:49.649Z,13.15
2023-05-21T03:39:16.297Z,13.18
2023-05-21T03:41:44.205Z,13.15
2023-05-21T03:44:10.747Z,13.17
2023-05-21T03:46:37.293Z,13.14
2023-05-21T03:49:03.861Z,13.10
2023-05-21T03:51:30.446Z,13.17
2023-05-21T03:53:57.725Z,13.17
2023-05-21T03:56:24.237Z,13.16
2023-05-21T03:58:52.151Z,13.14
2023-05-21T04:01:18.806Z,13.11
2023-05-21T04:03:45.521Z,13.12
2023-05-21T04:06:12.209Z,13.11
2023-05-21T04:08:38.772Z,13.15
2023-05-21T04:11:05.411Z,13.15
2023-05-21T04:13:31.969Z,13.16
2023-05-21T04:15:59.988Z,13.19
2023-05-21T04:18:26.727Z,13.19
2023-05-21T04:20:53.433Z,13.19
2023-05-21T04:23:19.973Z,13.20
2023-05-21T04:25:46.536Z,13.20
2023-05-21T04:28:13.059Z,13.23
2023-05-21T04:30:39.598Z,13.27
2023-05-21T04:33:07.582Z,13.28
2023-05-21T04:35:34.313Z,13.29
2023-05-21T04:38:02.971Z,13.32
2023-05-21T04:40:30.704Z,13.33
2023-05-21T04:42:57.259Z,13.34
2023-05-21T04:45:23.799Z,13.39
2023-05-21T04:47:50.394Z,13.40
2023-05-21T04:50:18.402Z,13.39
2023-05-21T04:52:44.943Z,13.42
2023-05-21T04:55:11.571Z,13.47
2023-05-21T04:57:38.081Z,13.51
2023-05-21T05:00:05.824Z,13.55
2023-05-21T05:02:32.378Z,13.63
2023-05-21T05:04:58.927Z,13.60
2023-05-21T05:07:26.777Z,13.61
2023-05-21T05:09:53.304Z,13.59
2023-05-21T05:12:19.825Z,13.60
2023-05-21T05:14:46.375Z,13.66
2023-05-21T05:17:12.914Z,13.69
2023-05-21T05:19:39.454Z,13.72
2023-05-21T05:22:06.062Z,13.74
2023-05-21T05:24:33.921Z,13.73
2023-05-21T05:27:00.616Z,13.74
2023-05-21T05:29:27.148Z,13.81
2023-05-21T05:31:53.708Z,13.85
2023-05-21T05:34:20.221Z,13.84
2023-05-21T05:36:46.751Z,13.89
2023-05-21T05:39:13.648Z,13.93
2023-05-21T05:41:41.539Z,13.93
2023-05-21T05:44:10.739Z,13.95
2023-05-21T05:46:37.836Z,14.02
2023-05-21T05:49:04.601Z,14.06
2023-05-21T05:51:31.166Z,14.06
2023-05-21T05:53:57.721Z,14.13
2023-05-21T05:56:24.267Z,14.14
2023-05-21T05:58:52.152Z,14.18
2023-05-21T06:01:19.013Z,14.28
2023-05-21T06:03:45.652Z,14.39
2023-05-21T06:06:12.447Z,14.35
2023-05-21T06:08:39.088Z,14.36
2023-05-21T06:11:05.715Z,14.41
2023-05-21T06:13:32.246Z,14.52
2023-05-21T06:16:00.148Z,14.56
2023-05-21T06:18:26.765Z,14.62
2023-05-21T06:20:53.335Z,14.60
2023-05-21T06:23:19.876Z,14.61
2023-05-21T06:25:46.602Z,14.67
2023-05-21T06:28:13.131Z,14.71
2023-05-21T06:30:39.674Z,14.72
2023-05-21T06:33:07.681Z,14.79
2023-05-21T06:35:34.370Z,14.82
2023-05-21T06:38:00.936Z,14.96
2023-05-21T06:40:27.597Z,14.95
2023-05-21T06:42:54.187Z,14.96
2023-05-21T06:45:20.819Z,15.04
2023-05-21T06:47:47.453Z,14.96
2023-05-21T06:50:15.537Z,15.00
2023-05-21T06:52:42.085Z,15.07
2023-05-21T06:55:09.323Z,15.11
2023-05-21T06:57:38.078Z,15.08
2023-05-21T07:00:05.365Z,15.05
2023-05-21T07:02:31.983Z,15.12
2023-05-21T07:04:58.596Z,15.18
2023-05-21T07:07:26.505Z,15.23
2023-05-21T07:09:53.055Z,15.29
2023-05-21T07:12:19.633Z,15.36
2023-05-21T07:14:46.145Z,15.39
2023-05-21T07:17:12.702Z,15.41
2023-05-21T07:19:39.221Z,15.54
2023-05-21T07:22:05.789Z,15.61
2023-05-21T07:24:33.737Z,15.71
2023-05-21T07:27:01.901Z,15.79
2023-05-21T07:29:29.903Z,15.87
2023-05-21T07:31:56.440Z,15.94
2023-05-21T07:34:22.963Z,15.92
2023-05-21T07:36:49.465Z,16.03
2023-05-21T07:39:16.044Z,16.01
2023-05-21T07:41:43.920Z,16.10
2023-05-21T07:44:10.471Z,16.20
2023-05-21T07:46:37.043Z,16.26
2023-05-21T07:49:03.555Z,16.36
2023-05-21T07:51:30.159Z,16.48
2023-05-21T07:53:56.695Z,16.58
2023-05-21T07:56:23.443Z,16.59
2023-05-21T07:58:51.271Z,16.66
2023-05-21T08:01:17.890Z,16.72
2023-05-21T08:03:44.704Z,16.80
2023-05-21T08:06:11.374Z,16.88
2023-05-21T08:08:37.907Z,17.00
2023-05-21T08:11:04.572Z,17.03
2023-05-21T08:13:31.108Z,17.13
2023-05-21T08:15:59.090Z,17.23
2023-05-21T08:18:25.694Z,17.17
2023-05-21T08:20:52.235Z,17.24
2023-05-21T08:23:18.854Z,17.32
2023-05-21T08:25:45.460Z,17.37
2023-05-21T08:28:11.994Z,17.42
2023-05-21T08:30:38.516Z,17.40
2023-05-21T08:33:06.460Z,17.48
2023-05-21T08:35:33.054Z,17.45
2023-05-21T08:37:59.618Z,17.58
2023-05-21T08:40:26.223Z,17.62
2023-05-21T08:42:52.868Z,17.56
2023-05-21T08:45:21.386Z,17.56
2023-05-21T08:47:47.986Z,17.56
2023-05-21T08:50:17.029Z,17.66
2023-05-21T08:52:43.599Z,17.79
2023-05-21T08:55:10.583Z,17.83
2023-05-21T08:57:37.275Z,17.90
2023-05-21T09:00:05.043Z,17.89
2023-05-21T09:02:34.596Z,17.97
2023-05-21T09:05:01.742Z,17.93
2023-05-21T09:07:31.231Z,17.94
2023-05-21T09:09:58.986Z,17.99
2023-05-21T09:12:26.073Z,18.15
2023-05-21T09:14:53.131Z,18.26
2023-05-21T09:17:20.459Z,18.32
2023-05-21T09:20:07.236Z,18.40
2023-05-21T09:22:35.583Z,18.45
2023-05-21T09:25:04.748Z,18.53
2023-05-21T09:27:32.409Z,18.58
2023-05-21T09:29:59.001Z,18.64
2023-05-21T09:32:25.551Z,18.60
2023-05-21T09:34:52.134Z,18.62
2023-05-21T09:37:27.067Z,18.70
2023-05-21T09:39:55.713Z,18.60
2023-05-21T09:42:22.319Z,18.67
2023-05-21T09:44:48.931Z,18.69
2023-05-21T09:47:19.991Z,18.75
2023-05-21T09:49:46.646Z,18.82
2023-05-21T09:52:13.284Z,18.81
2023-05-21T09:54:40.234Z,18.84
2023-05-21T09:57:08.203Z,18.82
2023-05-21T09:59:39.713Z,18.82
2023-05-21T10:02:17.720Z,18.84
2023-05-21T10:04:48.802Z,18.96
2023-05-21T10:07:18.287Z,19.08
2023-05-21T10:09:46.945Z,19.22
2023-05-21T10:12:17.882Z,19.25
2023-05-21T10:14:50.217Z,19.26
2023-05-21T10:17:17.351Z,19.28
2023-05-21T10:19:46.355Z,19.31
2023-05-21T10:22:13.891Z,19.45
2023-05-21T10:24:41.037Z,19.51
2023-05-21T10:27:07.585Z,19.58
2023-05-21T10:29:37.322Z,19.71
2023-05-21T10:32:05.437Z,19.70
2023-05-21T10:34:32.047Z,19.74
2023-05-21T10:37:01.504Z,19.87
2023-05-21T10:39:29.757Z,19.94
2023-05-21T10:42:05.496Z,19.95
2023-05-21T10:44:44.216Z,19.96
2023-05-21T10:47:40.399Z,20.00
2023-05-21T10:50:26.561Z,20.10
2023-05-21T10:53:10.655Z,20.14
2023-05-21T10:55:51.541Z,20.22
2023-05-21T10:58:47.537Z,20.36
2023-05-21T11:01:17.036Z,20.53
2023-05-21T11:03:43.859Z,20.63
2023-05-21T11:06:10.621Z,20.69
2023-05-21T11:08:38.458Z,20.82
2023-05-21T11:11:05.220Z,21.03
2023-05-21T11:13:45.582Z,21.17
2023-05-21T11:16:17.422Z,21.23
2023-05-21T11:19:02.917Z,21.31
2023-05-21T11:21:31.137Z,21.35
2023-05-21T11:24:05.953Z,21.32
2023-05-21T11:27:00.339Z,21.41
2023-05-21T11:29:47.033Z,21.46
2023-05-21T11:32:15.412Z,21.47
2023-05-21T11:34:44.222Z,21.54
2023-05-21T11:37:33.636Z,21.64
2023-05-21T11:40:24.307Z,21.74
2023-05-21T11:42:52.544Z,21.83
2023-05-21T11:45:20.487Z,22.08
2023-05-21T11:47:48.960Z,22.36
2023-05-21T11:50:16.720Z,22.42
2023-05-21T11:52:44.003Z,22.47
2023-05-21T11:55:10.803Z,22.52
2023-05-21T11:57:41.088Z,22.64
2023-05-21T12:00:13.825Z,22.79
2023-05-21T12:02:45.257Z,22.83
2023-05-21T12:05:13.329Z,22.94
2023-05-21T12:07:40.002Z,23.09
2023-05-21T12:10:08.696Z,23.21
2023-05-21T12:12:50.116Z,23.37
2023-05-21T12:15:21.559Z,23.36
2023-05-21T12:17:49.976Z,23.48
2023-05-21T12:20:18.723Z,23.49
2023-05-21T12:22:45.360Z,23.68
2023-05-21T12:25:11.906Z,23.80
2023-05-21T12:27:39.196Z,23.89
2023-05-21T12:30:07.286Z,23.97
2023-05-21T12:32:34.022Z,23.89
2023-05-21T12:35:00.608Z,23.89
2023-05-21T12:37:30.116Z,23.84
2023-05-21T12:39:59.389Z,23.71
2023-05-21T12:42:26.984Z,23.63
2023-05-21T12:44:54.243Z,23.55
2023-05-21T12:47:23.837Z,23.34
2023-05-21T12:49:55.283Z,23.33
2023-05-21T12:52:22.377Z,23.28
2023-05-21T12:54:52.292Z,23.25
2023-05-21T12:57:20.269Z,23.27
2023-05-21T12:59:48.367Z,23.27
2023-05-21T13:02:25.139Z,23.17
2023-05-21T13:04:56.325Z,23.05
2023-05-21T13:07:23.722Z,23.01
2023-05-21T13:09:52.003Z,23.03
2023-05-21T13:12:18.882Z,23.02
2023-05-21T13:14:45.424Z,23.06
2023-05-21T13:17:12.323Z,23.13
2023-05-21T13:19:38.900Z,23.13
2023-05-21T13:22:05.567Z,23.04
2023-05-21T13:24:32.067Z,23.04
2023-05-21T13:26:59.966Z,23.13
2023-05-21T13:29:26.495Z,23.17
2023-05-21T13:31:53.017Z,23.19
2023-05-21T13:34:19.574Z,23.31
2023-05-21T13:36:46.226Z,23.51
2023-05-21T13:39:12.760Z,23.69
2023-05-21T13:41:39.307Z,23.79
2023-05-21T13:44:07.230Z,23.80
2023-05-21T13:46:33.828Z,23.85
2023-05-21T13:49:00.378Z,23.84
2023-05-21T13:53:57.616Z,23.69
2023-05-21T13:56:24.159Z,23.61
2023-05-21T13:58:50.666Z,23.55
2023-05-21T14:01:18.647Z,23.52
2023-05-21T14:03:45.255Z,23.51
2023-05-21T14:06:11.820Z,23.63
2023-05-21T14:08:38.409Z,23.77
2023-05-21T14:11:05.161Z,23.79
2023-05-21T14:13:31.679Z,23.85
2023-05-21T14:15:58.284Z,23.80
2023-05-21T14:18:26.256Z,23.76
2023-05-21T14:20:53.571Z,23.76
2023-05-21T14:23:20.170Z,23.79
2023-05-21T14:25:46.710Z,23.82
2023-05-21T14:28:13.250Z,23.85
2023-05-21T14:30:39.797Z,23.88
2023-05-21T14:33:06.357Z,23.90
2023-05-21T14:35:34.429Z,23.94
2023-05-21T14:38:01.176Z,23.88
2023-05-21T14:40:27.743Z,23.94
2023-05-21T14:42:54.305Z,23.95
2023-05-21T14:45:20.860Z,24.01
2023-05-21T14:47:47.722Z,23.94
2023-05-21T14:50:15.886Z,23.95
2023-05-21T14:52:43.834Z,23.99
2023-05-21T14:55:10.782Z,23.98
2023-05-21T14:57:37.328Z,23.93
2023-05-21T15:00:04.947Z,23.92
2023-05-21T15:02:31.616Z,23.87
2023-05-21T15:04:58.210Z,23.87
2023-05-21T15:07:24.745Z,23.92
2023-05-21T15:09:52.658Z,23.93
2023-05-21T15:12:19.231Z,23.98
2023-05-21T15:14:45.861Z,23.98
2023-05-21T15:17:12.414Z,23.99
2023-05-21T15:19:39.061Z,23.94
2023-05-21T15:22:05.583Z,23.91
2023-05-21T15:24:32.116Z,23.90
2023-05-21T15:26:59.974Z,23.90
2023-05-21T15:29:26.501Z,23.90
2023-05-21T15:31:53.012Z,23.92
2023-05-21T15:34:19.630Z,23.91
2023-05-21T15:36:46.235Z,23.90
2023-05-21T15:39:12.762Z,23.81
2023-05-21T15:41:40.083Z,23.80
2023-05-21T15:44:07.955Z,23.83
2023-05-21T15:46:34.513Z,23.89
2023-05-21T15:49:01.098Z,23.90
2023-05-21T15:51:27.592Z,23.91
2023-05-21T15:53:54.115Z,23.89
2023-05-21T15:56:20.663Z,23.97
2023-05-21T15:58:47.218Z,24.07
2023-05-21T16:01:15.175Z,24.11
2023-05-21T16:03:41.790Z,24.11
2023-05-21T16:06:08.335Z,24.10
2023-05-21T16:08:34.868Z,24.08
2023-05-21T16:11:01.455Z,24.05
2023-05-21T16:13:27.990Z,23.98
2023-05-21T16:15:54.523Z,23.90
2023-05-21T16:18:22.410Z,23.81
2023-05-21T16:20:48.922Z,23.83
2023-05-21T16:23:15.480Z,23.87
2023-05-21T16:25:42.065Z,23.93
2023-05-21T16:28:08.574Z,23.99
2023-05-21T16:30:35.108Z,24.04
2023-05-21T16:33:01.793Z,24.05
2023-05-21T16:35:29.719Z,24.06
2023-05-21T16:37:56.305Z,24.10
2023-05-21T16:40:22.848Z,24.11
2023-05-21T16:42:49.530Z,24.06
2023-05-21T16:45:16.117Z,23.92
2023-05-21T16:47:42.647Z,23.88
2023-05-21T16:50:09.926Z,23.89
2023-05-21T16:52:37.780Z,23.94
2023-05-21T16:55:05.067Z,23.98
2023-05-21T16:57:31.579Z,24.05
2023-05-21T16:59:58.200Z,24.14
2023-05-21T17:02:24.823Z,24.12
2023-05-21T17:04:51.428Z,24.10
2023-05-21T17:07:17.982Z,24.08
2023-05-21T17:09:45.848Z,24.07
2023-05-21T17:12:12.405Z,24.02
2023-05-21T17:14:39.679Z,23.92
2023-05-21T17:17:06.310Z,23.90
2023-05-21T17:19:32.884Z,23.86
2023-05-21T17:21:59.467Z,23.88
2023-05-21T17:24:26.010Z,23.89
2023-05-21T17:26:53.975Z,23.91
2023-05-21T17:29:20.495Z,23.94
2023-05-21T17:31:47.104Z,23.80
2023-05-21T17:34:13.697Z,23.76
2023-05-21T17:36:40.272Z,23.68
2023-05-21T17:39:06.785Z,23.63
2023-05-21T17:41:33.322Z,23.54
2023-05-21T17:44:01.251Z,23.48
2023-05-21T17:46:27.798Z,23.45
2023-05-21T17:48:54.328Z,23.50
2023-05-21T17:51:20.915Z,23.51
2023-05-21T17:53:47.434Z,23.56
2023-05-21T17:56:14.011Z,23.60
2023-05-21T17:58:40.551Z,23.62
2023-05-21T18:01:08.509Z,23.68
2023-05-21T18:03:35.131Z,23.73
2023-05-21T18:06:01.707Z,23.76
2023-05-21T18:08:28.323Z,23.88
2023-05-21T18:10:54.874Z,24.14
2023-05-21T18:13:21.382Z,24.31
2023-05-21T18:15:47.958Z,24.32
2023-05-21T18:18:16.082Z,24.26
2023-05-21T18:20:43.742Z,24.15
2023-05-21T18:23:10.288Z,23.95
2023-05-21T18:25:36.904Z,23.84
2023-05-21T18:28:03.498Z,23.70
2023-05-21T18:30:30.031Z,23.61
2023-05-21T18:32:56.652Z,23.55
2023-05-21T18:35:24.592Z,23.50
2023-05-21T18:37:51.172Z,23.40
2023-05-21T18:40:17.898Z,23.31
2023-05-21T18:42:44.431Z,23.24
2023-05-21T18:45:11.562Z,23.17
2023-05-21T18:47:38.317Z,23.13
2023-05-21T18:50:06.079Z,23.07
2023-05-21T18:52:33.938Z,23.01
2023-05-21T18:55:00.455Z,22.93
2023-05-21T18:57:26.982Z,22.85
2023-05-21T18:59:53.514Z,22.79
2023-05-21T19:02:20.210Z,22.68
2023-05-21T19:04:46.843Z,22.63
2023-05-21T19:07:13.365Z,22.56
2023-05-21T19:09:41.331Z,22.50
2023-05-21T19:12:08.274Z,22.43
2023-05-21T19:14:34.867Z,22.35
2023-05-21T19:17:01.440Z,22.29
2023-05-21T19:19:28.088Z,22.22
2023-05-21T19:21:54.795Z,22.17
2023-05-21T19:24:21.352Z,22.06
2023-05-21T19:26:49.206Z,22.02
2023-05-21T19:29:15.736Z,21.92
2023-05-21T19:31:42.271Z,21.85
2023-05-21T19:34:08.774Z,21.77
2023-05-21T19:36:44.688Z,21.69
2023-05-21T19:39:19.155Z,21.65
2023-05-21T19:41:45.982Z,21.57
2023-05-21T19:44:13.862Z,21.50
2023-05-21T19:46:40.467Z,21.42
2023-05-21T19:49:07.006Z,21.38
2023-05-21T19:51:33.553Z,21.31
2023-05-21T19:54:00.131Z,21.26
2023-05-21T19:56:26.875Z,21.20
2023-05-21T19:58:53.400Z,21.13
2023-05-21T20:01:21.425Z,21.07
2023-05-21T20:03:48.065Z,21.01
2023-05-21T20:06:14.726Z,20.96
2023-05-21T20:08:41.261Z,20.92
2023-05-21T20:11:07.834Z,20.88
2023-05-21T20:13:34.400Z,20.83
2023-05-21T20:16:00.927Z,20.78
2023-05-21T20:18:28.817Z,20.75
2023-05-21T20:20:55.352Z,20.72
2023-05-21T20:23:21.883Z,20.65
2023-05-21T20:25:48.490Z,20.60
2023-05-21T20:28:15.017Z,20.53
2023-05-21T20:30:52.923Z,20.48
2023-05-21T20:33:19.530Z,20.46
2023-05-21T20:35:47.524Z,20.41
2023-05-21T20:38:14.061Z,20.41
2023-05-21T20:40:40.563Z,20.36
2023-05-21T20:43:07.082Z,20.34
2023-05-21T20:45:33.714Z,20.30
2023-05-21T20:48:00.507Z,20.25
2023-05-21T20:50:27.104Z,20.23
2023-05-21T20:52:55.019Z,20.24
2023-05-21T20:55:21.546Z,20.29
2023-05-21T20:57:48.080Z,20.28
2023-05-21T21:00:15.101Z,20.24
2023-05-21T21:02:41.727Z,20.18
2023-05-21T21:05:08.928Z,20.09
2023-05-21T21:07:35.853Z,20.00
2023-05-21T21:10:04.787Z,19.98
2023-05-21T21:12:31.368Z,20.00
2023-05-21T21:14:57.897Z,19.97
2023-05-21T21:17:24.460Z,20.00
2023-05-21T21:19:51.074Z,19.94
2023-05-21T21:22:17.753Z,19.85
2023-05-21T21:24:44.284Z,19.76
2023-05-21T21:27:12.153Z,19.69
2023-05-21T21:29:38.787Z,19.60
2023-05-21T21:32:06.223Z,19.47
2023-05-21T21:34:32.833Z,19.36
2023-05-21T21:36:59.393Z,19.36
2023-05-21T21:39:25.911Z,19.28
2023-05-21T21:41:52.467Z,19.32
2023-05-21T21:44:20.426Z,19.28
2023-05-21T21:46:47.094Z,19.23
2023-05-21T21:49:13.715Z,19.22
2023-05-21T21:51:40.513Z,19.17
2023-05-21T21:54:07.028Z,19.08
2023-05-21T21:56:33.607Z,19.11
2023-05-21T21:59:00.162Z,18.95
2023-05-21T22:01:28.704Z,19.01
2023-05-21T22:03:55.275Z,18.86
2023-05-21T22:06:21.811Z,18.83
2023-05-21T22:08:48.358Z,18.74
2023-05-21T22:11:15.027Z,18.70
2023-05-21T22:13:41.634Z,18.65
2023-05-21T22:16:08.288Z,18.67
2023-05-21T22:18:40.184Z,18.59
2023-05-21T22:21:07.894Z,18.78
2023-05-21T22:23:34.453Z,18.52
2023-05-21T22:26:01.000Z,18.44
2023-05-21T22:28:27.526Z,18.45
2023-05-21T22:30:54.101Z,18.48
2023-05-21T22:33:20.720Z,18.25
2023-05-21T22:35:48.614Z,18.25
2023-05-21T22:38:15.189Z,18.22
2023-05-21T22:40:41.745Z,18.12
2023-05-21T22:43:08.366Z,18.01
2023-05-21T22:45:34.885Z,18.00
2023-05-21T22:48:01.457Z,18.08
2023-05-21T22:50:28.002Z,17.93
2023-05-21T22:52:55.985Z,17.91
2023-05-21T22:55:22.556Z,17.82
2023-05-21T22:57:49.094Z,17.82
2023-05-21T23:00:16.242Z,17.79
2023-05-21T23:02:42.885Z,17.87
2023-05-21T23:05:09.717Z,17.86
2023-05-21T23:07:36.267Z,17.79
2023-05-21T23:10:04.968Z,17.78
2023-05-21T23:12:31.521Z,17.70
2023-05-21T23:14:58.116Z,17.58
2023-05-21T23:17:24.754Z,17.62
2023-05-21T23:19:51.341Z,17.70
2023-05-21T23:22:18.073Z,17.63
2023-05-21T23:24:44.595Z,17.55
2023-05-21T23:27:12.572Z,17.50
2023-05-21T23:29:39.118Z,17.46
2023-05-21T23:32:06.097Z,17.46
2023-05-21T23:34:32.846Z,17.44
2023-05-21T23:37:00.529Z,17.45
2023-05-21T23:39:27.627Z,17.39
2023-05-21T23:41:54.699Z,17.38
2023-05-21T23:44:22.624Z,17.32
2023-05-21T23:46:49.153Z,17.28
2023-05-21T23:49:15.834Z,17.27
2023-05-21T23:51:42.405Z,17.23
2023-05-21T23:54:08.957Z,17.12
2023-05-21T23:56:35.543Z,17.17
2023-05-21T23:59:02.116Z,17.29
